sensor_id;sensor_type;location;lat;lon;timestamp;P1;durP1;ratioP1;P2;durP2;ratioP2
49820;SDS011;36893;52.520;13.450;2022-12-24T00:07:58;4.87;;;3.10;;
49820;SDS011;36893;52.520;13.450;2022-12-24T00:17:58;6.57;;;2.60;;
49820;SDS011;36893;52.520;13.450;2022-12-24T00:27:59;4.90;;;2.37;;
49820;SDS011;36893;52.520;13.450;2022-12-24T00:38:00;4.83;;;2.50;;
49820;SDS011;36893;52.520;13.450;2022-12-24T00:48:02;4.82;;;2.78;;
49820;SDS011;36893;52.520;13.450;2022-12-24T00:58:03;7.93;;;3.20;;
49820;SDS011;36893;52.520;13.450;2022-12-24T01:08:04;8.10;;;2.93;;
49820;SDS011;36893;52.520;13.450;2022-12-24T01:18:04;3.57;;;2.50;;
49820;SDS011;36893;52.520;13.450;2022-12-24T01:28:05;7.20;;;2.83;;
49820;SDS011;36893;52.520;13.450;2022-12-24T01:38:06;6.63;;;2.80;;
49820;SDS011;36893;52.520;13.450;2022-12-24T01:48:15;6.47;;;2.95;;
49820;SDS011;36893;52.520;13.450;2022-12-24T01:58:46;5.60;;;3.00;;
49820;SDS011;36893;52.520;13.450;2022-12-24T02:08:51;4.43;;;2.58;;
49820;SDS011;36893;52.520;13.450;2022-12-24T02:19:17;4.67;;;2.47;;
49820;SDS011;36893;52.520;13.450;2022-12-24T02:29:44;5.18;;;1.95;;
49820;SDS011;36893;52.520;13.450;2022-12-24T02:50:10;4.63;;;2.55;;
49820;SDS011;36893;52.520;13.450;2022-12-24T03:00:14;4.85;;;2.30;;
49820;SDS011;36893;52.520;13.450;2022-12-24T03:10:31;3.08;;;2.03;;
49820;SDS011;36893;52.520;13.450;2022-12-24T03:20:42;3.22;;;2.00;;
49820;SDS011;36893;52.520;13.450;2022-12-24T03:30:47;4.00;;;2.20;;
49820;SDS011;36893;52.520;13.450;2022-12-24T03:40:48;4.90;;;1.93;;
49820;SDS011;36893;52.520;13.450;2022-12-24T03:50:49;4.03;;;1.60;;
49820;SDS011;36893;52.520;13.450;2022-12-24T04:00:51;2.70;;;2.00;;
49820;SDS011;36893;52.520;13.450;2022-12-24T04:10:52;4.10;;;2.20;;
49820;SDS011;36893;52.520;13.450;2022-12-24T04:20:53;4.13;;;2.47;;
49820;SDS011;36893;52.520;13.450;2022-12-24T04:30:58;4.72;;;1.77;;
49820;SDS011;36893;52.520;13.450;2022-12-24T04:41:06;4.22;;;2.25;;
49820;SDS011;36893;52.520;13.450;2022-12-24T04:51:11;4.65;;;1.95;;
49820;SDS011;36893;52.520;13.450;2022-12-24T05:01:14;3.45;;;1.80;;
49820;SDS011;36893;52.520;13.450;2022-12-24T05:11:18;3.42;;;1.98;;
49820;SDS011;36893;52.520;13.450;2022-12-24T05:21:19;3.27;;;1.50;;
49820;SDS011;36893;52.520;13.450;2022-12-24T05:31:23;2.97;;;1.70;;
49820;SDS011;36893;52.520;13.450;2022-12-24T05:41:25;3.60;;;1.92;;
49820;SDS011;36893;52.520;13.450;2022-12-24T05:51:26;2.13;;;1.35;;
49820;SDS011;36893;52.520;13.450;2022-12-24T06:01:26;3.57;;;1.60;;
49820;SDS011;36893;52.520;13.450;2022-12-24T06:11:27;2.88;;;1.50;;
49820;SDS011;36893;52.520;13.450;2022-12-24T06:21:29;3.53;;;1.67;;
49820;SDS011;36893;52.520;13.450;2022-12-24T06:31:29;2.78;;;1.50;;
49820;SDS011;36893;52.520;13.450;2022-12-24T06:41:30;2.70;;;1.60;;
49820;SDS011;36893;52.520;13.450;2022-12-24T06:51:31;3.30;;;1.40;;
49820;SDS011;36893;52.520;13.450;2022-12-24T07:01:31;2.83;;;1.40;;
49820;SDS011;36893;52.520;13.450;2022-12-24T07:11:32;2.60;;;1.30;;
49820;SDS011;36893;52.520;13.450;2022-12-24T07:21:32;3.20;;;1.90;;
49820;SDS011;36893;52.520;13.450;2022-12-24T07:31:33;12.40;;;1.90;;
49820;SDS011;36893;52.520;13.450;2022-12-24T07:41:34;2.60;;;1.43;;
49820;SDS011;36893;52.520;13.450;2022-12-24T07:51:34;6.60;;;1.43;;
49820;SDS011;36893;52.520;13.450;2022-12-24T08:01:36;3.72;;;1.38;;
49820;SDS011;36893;52.520;13.450;2022-12-24T08:11:36;8.10;;;1.47;;
49820;SDS011;36893;52.520;13.450;2022-12-24T08:21:37;12.33;;;2.03;;
49820;SDS011;36893;52.520;13.450;2022-12-24T08:31:37;2.30;;;1.30;;
49820;SDS011;36893;52.520;13.450;2022-12-24T08:41:38;5.17;;;1.40;;
49820;SDS011;36893;52.520;13.450;2022-12-24T08:51:39;7.63;;;1.20;;
49820;SDS011;36893;52.520;13.450;2022-12-24T09:01:39;2.67;;;1.00;;
49820;SDS011;36893;52.520;13.450;2022-12-24T09:11:41;4.50;;;1.00;;
49820;SDS011;36893;52.520;13.450;2022-12-24T09:21:42;9.87;;;1.30;;
49820;SDS011;36893;52.520;13.450;2022-12-24T09:31:42;2.80;;;1.57;;
49820;SDS011;36893;52.520;13.450;2022-12-24T09:41:58;2.60;;;1.50;;
49820;SDS011;36893;52.520;13.450;2022-12-24T09:52:27;4.00;;;1.17;;
49820;SDS011;36893;52.520;13.450;2022-12-24T10:02:35;8.27;;;1.60;;
49820;SDS011;36893;52.520;13.450;2022-12-24T10:33:33;2.53;;;1.33;;
49820;SDS011;36893;52.520;13.450;2022-12-24T10:43:44;2.92;;;1.27;;
49820;SDS011;36893;52.520;13.450;2022-12-24T10:53:47;4.85;;;1.67;;
49820;SDS011;36893;52.520;13.450;2022-12-24T11:04:00;2.20;;;1.52;;
49820;SDS011;36893;52.520;13.450;2022-12-24T11:14:01;6.53;;;2.55;;
49820;SDS011;36893;52.520;13.450;2022-12-24T11:24:13;2.42;;;1.45;;
49820;SDS011;36893;52.520;13.450;2022-12-24T11:44:29;2.90;;;1.45;;
49820;SDS011;36893;52.520;13.450;2022-12-24T11:54:30;4.10;;;1.50;;
49820;SDS011;36893;52.520;13.450;2022-12-24T12:04:40;5.00;;;1.60;;
49820;SDS011;36893;52.520;13.450;2022-12-24T12:14:44;7.18;;;1.70;;
49820;SDS011;36893;52.520;13.450;2022-12-24T12:24:50;3.50;;;1.70;;
49820;SDS011;36893;52.520;13.450;2022-12-24T12:35:00;3.13;;;1.83;;
49820;SDS011;36893;52.520;13.450;2022-12-24T13:06:34;4.67;;;2.10;;
49820;SDS011;36893;52.520;13.450;2022-12-24T13:17:01;4.45;;;2.17;;
49820;SDS011;36893;52.520;13.450;2022-12-24T13:27:38;2.97;;;1.40;;
49820;SDS011;36893;52.520;13.450;2022-12-24T13:37:39;6.20;;;2.47;;
49820;SDS011;36893;52.520;13.450;2022-12-24T13:47:39;3.20;;;1.40;;
49820;SDS011;36893;52.520;13.450;2022-12-24T14:08:05;8.30;;;2.45;;
49820;SDS011;36893;52.520;13.450;2022-12-24T14:18:10;4.90;;;2.05;;
49820;SDS011;36893;52.520;13.450;2022-12-24T14:28:23;5.65;;;1.58;;
49820;SDS011;36893;52.520;13.450;2022-12-24T14:38:33;4.43;;;1.95;;
49820;SDS011;36893;52.520;13.450;2022-12-24T14:48:41;7.63;;;2.03;;
49820;SDS011;36893;52.520;13.450;2022-12-24T14:58:51;3.42;;;1.75;;
49820;SDS011;36893;52.520;13.450;2022-12-24T15:08:52;4.17;;;1.67;;
49820;SDS011;36893;52.520;13.450;2022-12-24T15:18:54;5.15;;;2.00;;
49820;SDS011;36893;52.520;13.450;2022-12-24T15:28:59;6.05;;;1.70;;
49820;SDS011;36893;52.520;13.450;2022-12-24T15:39:02;5.18;;;1.80;;
49820;SDS011;36893;52.520;13.450;2022-12-24T15:49:12;3.97;;;1.63;;
49820;SDS011;36893;52.520;13.450;2022-12-24T16:09:31;4.65;;;1.80;;
49820;SDS011;36893;52.520;13.450;2022-12-24T16:19:34;4.07;;;2.15;;
49820;SDS011;36893;52.520;13.450;2022-12-24T16:29:35;3.53;;;1.70;;
49820;SDS011;36893;52.520;13.450;2022-12-24T16:39:35;8.47;;;2.37;;
49820;SDS011;36893;52.520;13.450;2022-12-24T16:49:36;4.17;;;1.33;;
49820;SDS011;36893;52.520;13.450;2022-12-24T16:59:37;4.05;;;1.80;;
49820;SDS011;36893;52.520;13.450;2022-12-24T17:09:38;4.45;;;2.20;;
49820;SDS011;36893;52.520;13.450;2022-12-24T17:19:39;8.15;;;1.95;;
49820;SDS011;36893;52.520;13.450;2022-12-24T17:29:40;4.33;;;1.47;;
49820;SDS011;36893;52.520;13.450;2022-12-24T17:39:41;3.47;;;1.60;;
49820;SDS011;36893;52.520;13.450;2022-12-24T17:49:41;3.03;;;1.50;;
49820;SDS011;36893;52.520;13.450;2022-12-24T17:59:42;4.27;;;2.13;;
49820;SDS011;36893;52.520;13.450;2022-12-24T18:09:43;3.23;;;1.57;;
49820;SDS011;36893;52.520;13.450;2022-12-24T18:19:44;5.18;;;2.03;;
49820;SDS011;36893;52.520;13.450;2022-12-24T18:29:45;5.57;;;2.23;;
49820;SDS011;36893;52.520;13.450;2022-12-24T18:39:45;5.63;;;1.70;;
49820;SDS011;36893;52.520;13.450;2022-12-24T18:49:46;2.57;;;1.33;;
49820;SDS011;36893;52.520;13.450;2022-12-24T18:59:47;2.70;;;1.20;;
49820;SDS011;36893;52.520;13.450;2022-12-24T19:09:47;4.50;;;1.27;;
49820;SDS011;36893;52.520;13.450;2022-12-24T19:19:49;4.90;;;1.83;;
49820;SDS011;36893;52.520;13.450;2022-12-24T19:29:50;3.88;;;1.85;;
49820;SDS011;36893;52.520;13.450;2022-12-24T19:39:51;4.63;;;1.90;;
49820;SDS011;36893;52.520;13.450;2022-12-24T19:49:51;3.35;;;1.33;;
49820;SDS011;36893;52.520;13.450;2022-12-24T19:59:52;2.03;;;1.43;;
49820;SDS011;36893;52.520;13.450;2022-12-24T20:09:53;2.90;;;1.60;;
49820;SDS011;36893;52.520;13.450;2022-12-24T20:19:53;8.23;;;2.33;;
49820;SDS011;36893;52.520;13.450;2022-12-24T20:29:54;3.60;;;1.83;;
49820;SDS011;36893;52.520;13.450;2022-12-24T20:39:54;3.43;;;1.87;;
49820;SDS011;36893;52.520;13.450;2022-12-24T20:49:55;6.43;;;2.27;;
49820;SDS011;36893;52.520;13.450;2022-12-24T20:59:56;3.80;;;2.10;;
49820;SDS011;36893;52.520;13.450;2022-12-24T21:09:56;5.07;;;2.13;;
49820;SDS011;36893;52.520;13.450;2022-12-24T21:19:57;4.23;;;2.07;;
49820;SDS011;36893;52.520;13.450;2022-12-24T21:29:59;10.23;;;2.33;;
49820;SDS011;36893;52.520;13.450;2022-12-24T21:40:00;4.63;;;1.97;;
49820;SDS011;36893;52.520;13.450;2022-12-24T21:50:01;3.28;;;2.05;;
49820;SDS011;36893;52.520;13.450;2022-12-24T22:00:20;6.05;;;2.13;;
49820;SDS011;36893;52.520;13.450;2022-12-24T22:10:21;7.50;;;2.40;;
49820;SDS011;36893;52.520;13.450;2022-12-24T22:20:40;4.72;;;1.85;;
49820;SDS011;36893;52.520;13.450;2022-12-24T22:30:42;6.45;;;2.25;;
49820;SDS011;36893;52.520;13.450;2022-12-24T22:40:43;2.90;;;1.57;;
49820;SDS011;36893;52.520;13.450;2022-12-24T22:50:43;3.40;;;1.87;;
49820;SDS011;36893;52.520;13.450;2022-12-24T23:00:44;3.90;;;1.97;;
49820;SDS011;36893;52.520;13.450;2022-12-24T23:10:45;12.33;;;2.00;;
49820;SDS011;36893;52.520;13.450;2022-12-24T23:20:45;5.27;;;2.07;;
49820;SDS011;36893;52.520;13.450;2022-12-24T23:30:54;4.63;;;2.10;;
49820;SDS011;36893;52.520;13.450;2022-12-24T23:40:58;5.68;;;1.67;;
49820;SDS011;36893;52.520;13.450;2022-12-24T23:51:02;4.80;;;2.10;;
